Time;durP1;ratioP1;P1;durP2;ratioP2;P2;SDS_P1;SDS_P2;PMS_P1;PMS_P2;Temp;Humidity;BMP_temperature;BMP_pressure;BME280_temperature;BME280_humidity;BME280_pressure;Samples;Min_cycle;Max_cycle;Signal;HPM_P1;HPM_P2
2022/11/25 00:00:49;;;;;;;;;9.00;6.00;;;;;12.09;78.10;100722.06;5103639;27;45392;-45
2022/11/25 00:03:15;;;;;;;;;6.00;3.33;;;;;12.09;77.93;100712.22;5103517;27;45227;-47
2022/11/25 00:05:40;;;;;;;;;4.33;4.33;;;;;12.12;78.15;100725.25;5099981;27;46016;-45
2022/11/25 00:08:06;;;;;;;;;7.33;2.67;;;;;12.15;78.53;100732.09;5099805;27;45623;-45
2022/11/25 00:10:31;;;;;;;;;7.67;3.00;;;;;12.15;78.39;100722.28;5100286;27;45374;-44
2022/11/25 00:12:57;;;;;;;;;9.00;4.00;;;;;12.16;78.64;100723.09;5100160;27;45445;-45
2022/11/25 00:15:22;;;;;;;;;3.00;3.00;;;;;12.16;78.71;100718.59;5099753;27;47425;-44
2022/11/25 00:17:47;;;;;;;;;2.67;2.67;;;;;12.22;78.00;100719.81;5100068;27;45344;-43
2022/11/25 00:20:13;;;;;;;;;4.33;3.00;;;;;12.23;78.02;100711.66;5099819;27;45381;-44
2022/11/25 00:22:38;;;;;;;;;6.67;3.33;;;;;12.23;78.37;100713.50;5100055;27;45394;-43
2022/11/25 00:25:04;;;;;;;;;5.33;3.33;;;;;12.24;78.44;100712.50;5099805;27;45361;-46
2022/11/25 00:27:29;;;;;;;;;2.00;2.00;;;;;12.18;77.84;100711.31;5099803;27;45420;-45
2022/11/25 00:29:54;;;;;;;;;2.33;2.33;;;;;12.23;77.81;100724.16;5100070;27;45442;-44
2022/11/25 00:32:20;;;;;;;;;9.00;4.33;;;;;12.24;78.03;100726.66;5099796;27;45428;-44
2022/11/25 00:34:46;;;;;;;;;7.33;3.00;;;;;12.23;77.86;100724.16;5099668;27;45914;-46
2022/11/25 00:37:11;;;;;;;;;3.67;2.00;;;;;12.21;78.10;100721.63;5099648;27;45355;-44
2022/11/25 00:39:36;;;;;;;;;13.67;7.00;;;;;12.19;78.33;100722.78;5099317;27;45465;-45
2022/11/25 00:44:46;;;;;;;;;9.33;1.00;;;;;12.21;77.82;100729.63;5099336;27;45758;-46
2022/11/25 00:47:17;;;;;;;;;9.67;3.67;;;;;12.21;77.77;100732.28;5099543;27;45460;-46
2022/11/25 00:49:51;;;;;;;;;2.67;2.00;;;;;12.20;77.60;100724.47;5099670;27;45325;-43
2022/11/25 00:52:19;;;;;;;;;6.00;2.00;;;;;12.21;78.05;100731.47;5099613;27;45303;-46
2022/11/25 00:54:46;;;;;;;;;3.33;2.33;;;;;12.17;77.87;100730.94;5098859;27;46421;-45
2022/11/25 00:57:12;;;;;;;;;6.00;3.67;;;;;12.17;78.00;100746.94;5099337;27;45461;-43
2022/11/25 00:59:38;;;;;;;;;4.33;2.67;;;;;12.15;77.85;100737.44;5099208;27;45263;-44
2022/11/25 01:02:03;;;;;;;;;2.00;2.00;;;;;12.18;77.61;100737.97;5099307;27;45319;-45
2022/11/25 01:04:28;;;;;;;;;4.67;3.33;;;;;12.19;77.88;100733.47;5099303;27;45377;-43
2022/11/25 01:06:55;;;;;;;;;4.33;2.00;;;;;12.16;77.84;100731.09;5099138;27;45207;-46
2022/11/25 01:09:21;;;;;;;;;3.33;3.00;;;;;12.16;77.89;100737.28;5099076;27;45237;-45
2022/11/25 01:11:50;;;;;;;;;4.00;4.00;;;;;12.14;77.48;100747.28;5099298;27;45357;-44
2022/11/25 01:14:15;;;;;;;;;4.00;4.00;;;;;12.13;77.58;100744.75;5098748;27;46254;-44
2022/11/25 01:16:40;;;;;;;;;4.67;3.00;;;;;12.09;77.31;100749.53;5097732;27;46121;-46
2022/11/25 01:19:06;;;;;;;;;4.00;2.33;;;;;12.02;77.30;100737.84;5099233;27;45424;-44
2022/11/25 01:21:33;;;;;;;;;6.00;1.67;;;;;12.08;77.35;100760.38;5099121;27;45491;-45
2022/11/25 01:24:00;;;;;;;;;5.33;3.00;;;;;12.04;77.85;100756.34;5098821;27;45752;-45
2022/11/25 01:26:25;;;;;;;;;3.33;2.00;;;;;12.01;77.40;100767.31;5098692;27;45560;-47
2022/11/25 01:28:59;;;;;;;;;6.00;5.00;;;;;11.93;77.60;100760.13;5098749;27;45507;-44
2022/11/25 01:31:27;;;;;;;;;2.67;0.67;;;;;11.97;77.97;100775.66;5099158;27;45409;-45
2022/11/25 01:33:55;;;;;;;;;2.33;2.00;;;;;11.95;77.76;100768.78;5098479;27;47179;-47
2022/11/25 01:36:21;;;;;;;;;4.67;2.00;;;;;11.92;77.41;100783.25;5098658;27;45305;-47
2022/11/25 01:38:50;;;;;;;;;3.00;2.00;;;;;11.89;77.80;100780.91;5098629;27;45490;-46
2022/11/25 01:41:15;;;;;;;;;1.67;1.67;;;;;11.81;77.60;100783.47;5098894;27;45368;-47
2022/11/25 01:43:41;;;;;;;;;3.67;3.00;;;;;11.88;78.02;100800.56;5098370;27;47067;-46
2022/11/25 01:46:18;;;;;;;;;8.67;3.33;;;;;11.87;77.57;100800.72;5098236;27;45326;-45
2022/11/25 01:48:52;;;;;;;;;5.00;2.00;;;;;11.85;77.95;100800.03;5098581;27;45424;-49
2022/11/25 01:51:26;;;;;;;;;3.00;3.00;;;;;11.84;77.54;100804.53;5098684;27;45399;-44
2022/11/25 01:53:56;;;;;;;;;4.00;4.00;;;;;11.83;77.64;100815.34;5098083;27;45438;-44
2022/11/25 01:56:24;;;;;;;;;6.00;2.00;;;;;11.80;78.10;100813.78;5098226;27;45247;-46
2022/11/25 01:58:49;;;;;;;;;2.67;1.00;;;;;11.74;78.00;100798.41;5098277;27;45289;-45
2022/11/25 02:01:16;;;;;;;;;5.00;3.00;;;;;11.75;78.18;100818.72;5098439;27;45378;-45
2022/11/25 02:03:45;;;;;;;;;10.00;3.33;;;;;11.73;78.24;100818.06;5098203;27;46596;-43
2022/11/25 02:06:16;;;;;;;;;6.00;2.33;;;;;11.73;77.98;100829.53;5097982;27;45410;-45
2022/11/25 02:08:47;;;;;;;;;2.33;2.33;;;;;11.71;77.67;100826.22;5098127;27;45338;-47
2022/11/25 02:11:14;;;;;;;;;4.00;3.00;;;;;11.62;78.29;100819.09;5098286;27;45232;-46
2022/11/25 02:13:40;;;;;;;;;1.67;1.67;;;;;11.71;78.22;100833.34;5098029;27;46303;-46
2022/11/25 02:16:05;;;;;;;;;2.00;1.67;;;;;11.70;78.41;100835.16;5097846;27;45357;-47
2022/11/25 02:18:30;;;;;;;;;1.00;1.00;;;;;11.69;78.10;100843.31;5098015;27;45213;-44
2022/11/25 02:20:56;;;;;;;;;2.67;2.33;;;;;11.69;77.65;100846.00;5098652;27;45283;-46
2022/11/25 02:23:33;;;;;;;;;4.00;1.00;;;;;11.68;78.03;100847.81;5097903;27;46275;-46
2022/11/25 02:25:59;;;;;;;;;3.67;3.67;;;;;11.65;77.93;100848.13;5096564;27;45537;-45
2022/11/25 02:28:28;;;;;;;;;5.33;2.67;;;;;11.65;77.88;100856.13;5097578;27;45419;-45
2022/11/25 02:30:54;;;;;;;;;2.00;2.00;;;;;11.62;77.85;100848.41;5098306;27;45369;-45
2022/11/25 02:33:19;;;;;;;;;5.67;1.33;;;;;11.58;77.76;100856.84;5097742;27;45614;-45
2022/11/25 02:35:55;;;;;;;;;8.33;2.67;;;;;11.59;77.73;100863.88;5097703;27;45364;-45
2022/11/25 02:38:44;;;;;;;;;1.33;1.33;;;;;11.58;78.33;100863.03;5098056;27;45383;-44
2022/11/25 02:41:09;;;;;;;;;2.00;2.00;;;;;11.59;77.93;100869.22;5097867;27;45271;-44
2022/11/25 02:43:35;;;;;;;;;4.00;1.00;;;;;11.58;78.01;100881.66;5097520;27;46310;-48
2022/11/25 02:46:02;;;;;;;;;2.00;2.00;;;;;11.58;77.93;100870.19;5097262;27;45388;-47
2022/11/25 02:48:29;;;;;;;;;3.33;1.00;;;;;11.56;78.33;100874.84;5097698;27;45474;-45
2022/11/25 02:50:55;;;;;;;;;7.33;1.00;;;;;11.51;78.06;100869.13;5097996;27;45392;-45
2022/11/25 02:53:20;;;;;;;;;3.33;2.00;;;;;11.56;77.93;100880.16;5097338;27;45421;-46
2022/11/25 02:55:46;;;;;;;;;3.67;2.00;;;;;11.55;77.74;100894.47;5097492;27;45521;-44
2022/11/25 02:58:12;;;;;;;;;2.67;2.00;;;;;11.55;77.92;100894.47;5097579;27;45402;-45
2022/11/25 03:00:38;;;;;;;;;5.00;1.00;;;;;11.52;77.95;100892.09;5097696;27;45382;-44
2022/11/25 03:03:04;;;;;;;;;4.00;2.00;;;;;11.52;77.91;100892.94;5097281;27;46371;-45
2022/11/25 03:05:30;;;;;;;;;3.00;1.00;;;;;11.46;77.90;100880.19;5097313;27;45673;-44
2022/11/25 03:07:55;;;;;;;;;6.67;3.00;;;;;11.52;77.53;100900.94;5097611;27;45380;-46
2022/11/25 03:10:20;;;;;;;;;2.67;2.67;;;;;11.50;77.54;100897.56;5097984;27;45450;-44
2022/11/25 03:12:46;;;;;;;;;2.00;1.67;;;;;11.51;78.23;100911.75;5097348;27;46121;-44
2022/11/25 03:15:11;;;;;;;;;3.67;2.00;;;;;11.49;78.00;100920.72;5097498;27;45529;-46
2022/11/25 03:17:37;;;;;;;;;2.67;1.00;;;;;11.46;77.73;100918.34;5097414;27;45518;-48
2022/11/25 03:20:06;;;;;;;;;6.67;2.67;;;;;11.45;77.97;100918.50;5097658;27;45238;-42
2022/11/25 03:22:32;;;;;;;;;3.00;1.00;;;;;11.44;77.64;100920.31;5097198;27;46615;-47
2022/11/25 03:24:57;;;;;;;;;2.33;2.00;;;;;11.40;78.03;100926.09;5112919;27;45491;-44
2022/11/25 03:27:23;;;;;;;;;2.67;2.33;;;;;11.42;77.85;100932.97;5097363;27;45163;-45
2022/11/25 03:29:48;;;;;;;;;3.00;2.00;;;;;11.40;77.77;100936.75;5097595;27;45410;-46
2022/11/25 03:32:14;;;;;;;;;6.33;2.00;;;;;11.32;77.57;100926.81;5097053;27;45662;-46
2022/11/25 03:34:39;;;;;;;;;3.33;2.00;;;;;11.34;77.97;100938.19;5096971;27;45394;-44
2022/11/25 03:37:05;;;;;;;;;6.67;5.00;;;;;11.34;77.96;100943.50;5097160;27;45583;-46
2022/11/25 03:39:30;;;;;;;;;3.00;3.00;;;;;11.31;78.07;100946.47;5097507;27;45465;-43
2022/11/25 03:41:55;;;;;;;;;5.00;2.33;;;;;11.31;77.73;100945.63;5100509;27;45311;-49
2022/11/25 03:44:21;;;;;;;;;3.00;2.00;;;;;11.32;77.93;100963.28;5100529;27;45269;-48
2022/11/25 03:46:46;;;;;;;;;7.00;2.00;;;;;11.30;77.87;100967.91;5100391;27;45793;-44
2022/11/25 03:49:11;;;;;;;;;1.67;1.67;;;;;11.29;77.82;100972.38;5100839;27;45667;-44
2022/11/25 03:51:37;;;;;;;;;8.67;2.00;;;;;11.28;78.12;100967.22;5100436;27;45264;-46
2022/11/25 03:54:02;;;;;;;;;3.33;2.00;;;;;11.28;77.84;100972.53;5100371;27;45452;-44
2022/11/25 03:56:28;;;;;;;;;5.67;1.33;;;;;11.28;77.50;100973.38;5100388;27;45262;-44
2022/11/25 03:58:53;;;;;;;;;4.00;2.00;;;;;11.26;77.49;100975.34;5100887;27;45447;-46
2022/11/25 04:01:18;;;;;;;;;3.00;3.00;;;;;11.31;77.60;100975.75;5100361;27;46228;-47
2022/11/25 04:03:43;;;;;;;;;2.00;1.00;;;;;11.31;77.61;100977.56;5100642;27;45233;-46
2022/11/25 04:06:09;;;;;;;;;6.00;2.67;;;;;11.32;77.59;100973.94;5100423;27;45444;-45
2022/11/25 04:08:34;;;;;;;;;2.33;2.33;;;;;11.31;77.44;100981.06;5100650;27;45416;-46
2022/11/25 04:11:00;;;;;;;;;8.00;2.33;;;;;11.31;77.91;100985.56;5100164;27;45352;-45
2022/11/25 04:13:25;;;;;;;;;6.00;3.67;;;;;11.30;77.58;100994.56;5100202;27;45309;-45
2022/11/25 04:15:50;;;;;;;;;1.67;1.67;;;;;11.26;77.58;100993.16;5100272;27;45320;-44
2022/11/25 04:18:18;;;;;;;;;4.33;2.67;;;;;11.24;77.40;100987.97;5100197;27;45386;-46
2022/11/25 04:20:43;;;;;;;;;7.33;2.00;;;;;11.26;77.50;100994.00;5099946;27;47197;-44
2022/11/25 04:23:10;;;;;;;;;5.33;3.00;;;;;11.26;77.66;100999.31;5099859;27;45317;-46
2022/11/25 04:25:36;;;;;;;;;4.33;2.00;;;;;11.27;77.70;101002.81;5099854;27;45316;-45
2022/11/25 04:28:03;;;;;;;;;1.33;1.00;;;;;11.26;77.53;101006.47;5100041;27;45368;-43
2022/11/25 04:30:28;;;;;;;;;6.33;3.00;;;;;11.24;77.83;101011.94;5099616;27;46096;-43
2022/11/25 04:32:53;;;;;;;;;5.33;2.67;;;;;11.23;77.27;101016.41;5099613;27;45326;-44
2022/11/25 04:35:19;;;;;;;;;5.67;2.67;;;;;11.24;77.32;101026.06;5099894;27;45441;-46
2022/11/25 04:37:44;;;;;;;;;3.67;3.00;;;;;11.18;77.77;101021.34;5100089;27;45325;-46
2022/11/25 04:40:10;;;;;;;;;7.00;1.00;;;;;11.21;77.52;101033.53;5099498;27;46073;-45
2022/11/25 04:42:38;;;;;;;;;3.00;3.00;;;;;11.20;77.71;101037.16;5099669;27;45305;-44
2022/11/25 04:45:09;;;;;;;;;6.00;3.00;;;;;11.19;77.55;101039.00;5099522;27;45371;-45
2022/11/25 04:47:35;;;;;;;;;4.67;3.00;;;;;11.18;77.89;101039.97;5099842;27;45483;-47
2022/11/25 04:50:02;;;;;;;;;5.00;2.00;;;;;11.18;77.70;101039.97;5099325;27;46925;-47
2022/11/25 04:52:27;;;;;;;;;7.33;5.00;;;;;11.16;78.04;101039.28;5098807;27;45368;-46
2022/11/25 04:54:53;;;;;;;;;6.00;6.00;;;;;11.16;77.87;101047.25;5099301;27;45304;-44
2022/11/25 04:57:18;;;;;;;;;3.00;3.00;;;;;11.08;77.46;101036.50;5099701;27;45379;-46
2022/11/25 04:59:45;;;;;;;;;5.33;1.33;;;;;11.15;77.92;101044.75;5099213;27;46168;-49
2022/11/25 05:02:22;;;;;;;;;2.67;2.67;;;;;11.13;77.51;101052.88;5097950;27;45423;-45
2022/11/25 05:04:49;;;;;;;;;5.67;3.00;;;;;11.11;77.49;101054.00;5099439;27;45508;-45
2022/11/25 05:07:17;;;;;;;;;3.33;2.67;;;;;11.09;77.72;101055.97;5099587;27;45424;-44
2022/11/25 05:09:43;;;;;;;;;7.67;5.00;;;;;11.04;78.39;101064.41;5099006;27;46504;-45
2022/11/25 05:12:11;;;;;;;;;12.00;3.67;;;;;11.04;77.85;101063.53;5098855;27;45477;-46
2022/11/25 05:14:37;;;;;;;;;10.33;2.33;;;;;11.02;77.83;101074.34;5099158;27;45431;-45
2022/11/25 05:17:03;;;;;;;;;5.67;5.33;;;;;10.99;77.78;101074.59;5099229;27;45498;-47
2022/11/25 05:19:29;;;;;;;;;5.00;3.00;;;;;10.99;77.89;101087.91;5097704;27;46951;-45
2022/11/25 05:21:54;;;;;;;;;12.33;4.33;;;;;10.95;78.02;101095.34;5098845;27;45416;-44
2022/11/25 05:24:19;;;;;;;;;7.00;5.00;;;;;10.92;78.15;101092.97;5098971;27;45281;-48
2022/11/25 05:26:45;;;;;;;;;12.00;4.00;;;;;10.92;78.13;101094.81;5099223;27;45356;-46
2022/11/25 05:29:10;;;;;;;;;6.00;4.00;;;;;10.91;78.19;101101.09;5097463;27;47330;-48
2022/11/25 05:31:35;;;;;;;;;9.33;5.67;;;;;10.91;78.39;101101.09;5098777;27;45324;-46
2022/11/25 05:34:02;;;;;;;;;6.67;3.00;;;;;10.88;78.53;101101.38;5098733;27;45306;-49
2022/11/25 05:36:28;;;;;;;;;2.67;2.67;;;;;10.81;78.46;101095.78;5098997;27;45674;-45
2022/11/25 05:38:55;;;;;;;;;5.33;5.00;;;;;10.79;78.46;101097.75;5098689;27;45467;-47
2022/11/25 05:41:20;;;;;;;;;6.33;2.67;;;;;10.81;78.28;101114.41;5097234;27;45338;-44
2022/11/25 05:43:46;;;;;;;;;2.33;2.33;;;;;10.80;78.63;101114.56;5098530;27;45472;-48
2022/11/25 05:46:12;;;;;;;;;2.67;2.00;;;;;10.78;78.78;101119.16;5098544;27;45385;-44
2022/11/25 05:48:37;;;;;;;;;11.33;3.67;;;;;10.74;78.65;101124.78;5098291;27;46192;-47
2022/11/25 05:51:03;;;;;;;;;2.67;1.67;;;;;10.74;78.61;101127.44;5098420;27;45367;-45
2022/11/25 05:53:30;;;;;;;;;3.00;3.00;;;;;10.76;78.59;101134.44;5098618;27;45438;-48
2022/11/25 05:55:58;;;;;;;;;2.33;2.33;;;;;10.77;78.51;101131.63;5098591;27;45221;-48
2022/11/25 05:58:23;;;;;;;;;4.00;3.00;;;;;10.74;78.53;101129.22;5098232;27;47112;-47
2022/11/25 06:00:50;;;;;;;;;9.33;5.33;;;;;10.78;78.46;101137.78;5098550;27;45309;-46
2022/11/25 06:03:15;;;;;;;;;3.00;3.00;;;;;10.76;78.25;101137.94;5097853;27;45314;-47
2022/11/25 06:05:41;;;;;;;;;13.67;5.00;;;;;10.74;78.46;101145.19;5098478;27;45443;-46
2022/11/25 06:08:07;;;;;;;;;6.00;5.00;;;;;10.76;78.69;101139.75;5098077;27;45672;-46
2022/11/25 06:10:32;;;;;;;;;6.00;3.00;;;;;10.76;78.48;101137.09;5098024;27;45454;-47
2022/11/25 06:12:58;;;;;;;;;11.33;6.00;;;;;10.75;78.14;101144.25;5098295;27;45283;-46
2022/11/25 06:15:24;;;;;;;;;7.33;5.33;;;;;10.74;78.82;101154.03;5098519;27;45409;-45
2022/11/25 06:17:49;;;;;;;;;5.00;4.67;;;;;10.73;78.25;101156.81;5098065;27;46055;-45
2022/11/25 06:20:15;;;;;;;;;8.33;5.00;;;;;10.72;78.15;101150.66;5098289;27;45488;-45
2022/11/25 06:22:40;;;;;;;;;4.33;3.00;;;;;10.73;78.27;101155.00;5098110;27;45297;-44
2022/11/25 06:25:06;;;;;;;;;8.00;5.00;;;;;10.72;78.06;101150.66;5098382;27;45250;-45
2022/11/25 06:27:32;;;;;;;;;3.00;3.00;;;;;10.71;78.21;101167.63;5098011;27;46242;-46
2022/11/25 06:29:57;;;;;;;;;8.33;2.33;;;;;10.70;78.15;101163.28;5097966;27;45497;-44
2022/11/25 06:32:23;;;;;;;;;6.00;5.00;;;;;10.69;78.16;101164.25;5097998;27;45603;-46
2022/11/25 06:34:49;;;;;;;;;10.33;6.33;;;;;10.65;77.86;101168.16;5098368;27;45297;-46
2022/11/25 06:37:14;;;;;;;;;6.33;4.00;;;;;10.67;78.13;101176.84;5097513;27;45998;-46
2022/11/25 06:39:39;;;;;;;;;5.33;3.00;;;;;10.65;77.96;101183.28;5098054;27;45352;-46
2022/11/25 06:42:05;;;;;;;;;1.00;1.00;;;;;10.63;78.18;101188.75;5098145;27;45348;-44
2022/11/25 06:44:30;;;;;;;;;3.00;2.33;;;;;10.60;78.17;101186.34;5098120;27;45431;-42
2022/11/25 06:46:55;;;;;;;;;5.00;4.00;;;;;10.64;77.98;101194.91;5097535;27;45525;-45
2022/11/25 06:49:21;;;;;;;;;5.00;3.00;;;;;10.64;77.79;101200.22;5097681;27;45304;-45
2022/11/25 06:51:49;;;;;;;;;8.00;2.00;;;;;10.63;77.80;101202.03;5097590;27;45619;-47
2022/11/25 06:54:14;;;;;;;;;5.67;2.67;;;;;10.61;77.71;101198.66;5097957;27;45580;-44
2022/11/25 06:56:39;;;;;;;;;7.00;6.00;;;;;10.58;77.70;101196.28;5097250;27;46121;-42
2022/11/25 06:59:05;;;;;;;;;11.00;5.00;;;;;10.60;77.53;101202.31;5097684;27;45320;-46
2022/11/25 07:01:31;;;;;;;;;7.33;5.00;;;;;10.56;77.75;101189.41;5097596;27;45220;-47
2022/11/25 07:04:02;;;;;;;;;7.00;2.67;;;;;10.57;78.03;101201.72;5097925;27;45422;-46
2022/11/25 07:06:28;;;;;;;;;5.00;5.00;;;;;10.58;77.92;101206.94;5097365;27;46203;-46
2022/11/25 07:08:54;;;;;;;;;6.67;2.67;;;;;10.47;77.81;101181.28;5097218;27;45206;-45
2022/11/25 07:11:25;;;;;;;;;7.00;3.00;;;;;10.55;77.81;101193.91;5097542;27;45370;-45
2022/11/25 07:13:56;;;;;;;;;6.00;3.00;;;;;10.57;78.02;101205.22;5098551;27;45394;-51
2022/11/25 07:16:22;;;;;;;;;6.00;6.00;;;;;10.47;77.98;101191.91;5100804;27;45330;-49
2022/11/25 07:18:47;;;;;;;;;9.33;5.00;;;;;10.59;78.06;101221.06;5100906;27;45399;-50
2022/11/25 07:21:16;;;;;;;;;6.00;5.00;;;;;10.58;77.76;101220.25;5099588;27;45417;-50
2022/11/25 07:23:43;;;;;;;;;11.00;8.00;;;;;10.60;77.77;101228.06;5101330;27;45384;-46
2022/11/25 07:26:11;;;;;;;;;5.33;5.33;;;;;10.59;78.10;101224.56;5100662;27;46267;-47
2022/11/25 07:28:38;;;;;;;;;10.33;6.67;;;;;10.59;77.60;101237.88;5100553;27;45214;-49
2022/11/25 07:31:15;;;;;;;;;11.33;4.67;;;;;10.59;77.82;101239.69;5101004;27;45334;-51
2022/11/25 07:33:41;;;;;;;;;12.67;6.33;;;;;10.62;77.83;101258.91;5100978;27;45430;-50
2022/11/25 07:36:09;;;;;;;;;9.00;6.67;;;;;10.64;77.63;101245.44;5100443;27;46225;-46
2022/11/25 07:38:35;;;;;;;;;10.00;7.00;;;;;10.64;77.42;101259.59;5100769;27;45524;-47
2022/11/25 07:41:08;;;;;;;;;7.00;3.67;;;;;10.64;77.81;101262.25;5100702;27;45374;-49
2022/11/25 07:43:35;;;;;;;;;13.67;6.00;;;;;10.65;77.71;101263.09;5100844;27;45171;-47
2022/11/25 07:46:21;;;;;;;;;7.00;5.00;;;;;10.69;77.38;101275.16;5100523;27;46533;-50
2022/11/25 07:48:47;;;;;;;;;6.33;6.33;;;;;10.70;77.06;101274.16;5100397;27;45262;-48
2022/11/25 07:51:18;;;;;;;;;7.00;5.00;;;;;10.71;77.00;101284.69;5100493;27;45374;-49
2022/11/25 07:53:45;;;;;;;;;11.33;5.67;;;;;10.71;77.02;101284.69;5100690;27;45377;-47
2022/11/25 07:56:11;;;;;;;;;9.67;6.67;;;;;10.71;76.97;101284.69;5100207;27;46173;-48
2022/11/25 07:58:36;;;;;;;;;8.33;6.00;;;;;10.74;76.80;101294.22;5100234;27;45252;-47
2022/11/25 08:01:06;;;;;;;;;7.67;7.67;;;;;10.79;76.87;101304.44;5100343;27;45295;-48
2022/11/25 08:03:34;;;;;;;;;2.00;2.00;;;;;10.81;76.75;101310.50;5100477;27;45366;-49
2022/11/25 08:06:04;;;;;;;;;7.33;5.00;;;;;10.67;76.68;101290.44;5100075;27;46049;-50
2022/11/25 08:08:30;;;;;;;;;7.33;6.33;;;;;10.78;76.45;101318.75;5100113;27;45373;-48
2022/11/25 08:10:56;;;;;;;;;11.00;7.00;;;;;10.79;76.75;101317.75;5100067;27;45409;-49
2022/11/25 08:13:22;;;;;;;;;5.00;5.00;;;;;10.79;76.70;101328.41;5100468;27;45347;-49
2022/11/25 08:15:47;;;;;;;;;8.67;5.00;;;;;10.78;76.80;101343.53;5099854;27;46219;-49
2022/11/25 08:18:13;;;;;;;;;11.00;9.00;;;;;10.68;76.72;101335.50;5099935;27;45419;-48
2022/11/25 08:20:38;;;;;;;;;14.67;8.00;;;;;10.73;76.74;101341.28;5100051;27;45365;-50
2022/11/25 08:23:04;;;;;;;;;10.00;9.00;;;;;10.84;76.96;101348.34;5099723;27;45487;-48
2022/11/25 08:25:30;;;;;;;;;10.00;8.33;;;;;10.86;76.63;101365.00;5099042;27;45809;-50
2022/11/25 08:27:58;;;;;;;;;12.00;6.67;;;;;10.87;76.30;101360.50;5099678;27;45423;-48
2022/11/25 08:30:24;;;;;;;;;12.67;6.33;;;;;10.80;76.34;101338.09;5099825;27;45348;-49
2022/11/25 08:32:50;;;;;;;;;10.67;9.33;;;;;10.85;76.89;101351.84;5099937;27;45492;-47
2022/11/25 08:35:16;;;;;;;;;8.67;8.67;;;;;10.88;76.34;101364.88;5099480;27;46206;-50
2022/11/25 08:37:41;;;;;;;;;11.67;7.00;;;;;10.89;76.60;101367.41;5099712;27;45360;-49
2022/11/25 08:40:07;;;;;;;;;8.00;5.00;;;;;10.91;76.63;101369.91;5100137;27;45781;-47
2022/11/25 08:42:33;;;;;;;;;9.33;8.67;;;;;10.92;76.39;101372.47;5099243;27;45464;-50
2022/11/25 08:44:58;;;;;;;;;6.33;6.00;;;;;10.96;76.52;101378.38;5099298;27;46115;-48
2022/11/25 08:47:24;;;;;;;;;8.33;7.00;;;;;10.98;76.56;101384.38;5099749;27;45364;-45
2022/11/25 08:49:54;;;;;;;;;12.00;7.00;;;;;11.02;76.30;101388.47;5099530;27;45239;-50
2022/11/25 08:52:20;;;;;;;;;8.33;6.00;;;;;11.08;76.11;101381.75;5099809;27;45404;-46
2022/11/25 08:54:46;;;;;;;;;10.67;6.00;;;;;11.11;75.92;101392.16;5097757;27;48215;-48
2022/11/25 08:57:12;;;;;;;;;9.33;7.00;;;;;11.14;75.75;101395.41;5099308;27;45377;-47
2022/11/25 08:59:37;;;;;;;;;6.33;6.33;;;;;11.11;75.68;101387.66;5099630;27;45429;-46
2022/11/25 09:02:04;;;;;;;;;13.33;7.00;;;;;11.21;75.46;101401.88;5096761;27;45590;-45
2022/11/25 09:04:30;;;;;;;;;7.67;7.00;;;;;11.24;75.43;101398.09;5096388;27;45487;-48
2022/11/25 09:06:55;;;;;;;;;11.33;7.00;;;;;11.30;75.03;101410.03;5098309;27;45326;-47
2022/11/25 09:09:20;;;;;;;;;15.67;7.33;;;;;11.30;75.33;101407.38;5096511;27;45723;-43
2022/11/25 09:11:46;;;;;;;;;10.00;7.33;;;;;11.42;74.71;101422.28;5096650;27;45438;-50
2022/11/25 09:14:11;;;;;;;;;9.67;6.00;;;;;11.50;74.38;101435.72;5096058;27;45425;-46
2022/11/25 09:16:36;;;;;;;;;8.00;7.67;;;;;11.67;74.74;101431.56;5096614;27;45455;-50
2022/11/25 09:19:02;;;;;;;;;11.33;7.67;;;;;11.73;73.68;101431.03;5096764;27;45565;-47
2022/11/25 09:21:27;;;;;;;;;15.67;11.67;;;;;11.68;73.89;101434.13;5096332;27;45281;-48
2022/11/25 09:23:56;;;;;;;;;8.33;8.00;;;;;11.79;73.63;101441.13;5096544;27;45456;-50
2022/11/25 09:26:25;;;;;;;;;11.00;6.67;;;;;11.87;73.30;101448.47;5096486;27;45265;-46
2022/11/25 09:28:51;;;;;;;;;11.67;10.00;;;;;12.05;72.52;101453.97;5096107;27;45372;-48
2022/11/25 09:31:17;;;;;;;;;6.33;6.33;;;;;12.14;72.06;101456.66;5096615;27;45782;-46
2022/11/25 09:33:43;;;;;;;;;10.33;3.00;;;;;12.19;71.95;101467.75;5096067;27;45440;-46
2022/11/25 09:36:11;;;;;;;;;8.00;7.00;;;;;12.26;71.79;101468.03;5095691;27;45415;-47
2022/11/25 09:38:36;;;;;;;;;7.33;6.67;;;;;12.33;71.18;101473.66;5095050;27;45485;-44
2022/11/25 09:41:09;;;;;;;;;9.33;6.00;;;;;12.43;71.39;101479.81;5095694;27;45555;-43
2022/11/25 09:46:52;;;;;;;;;6.67;6.67;;;;;12.52;70.63;101468.31;5096989;27;45311;-48
2022/11/25 09:49:42;;;;;;;;;7.00;4.67;;;;;12.64;70.19;101477.88;5098630;27;45416;-47
2022/11/25 09:52:47;;;;;;;;;10.67;8.00;;;;;12.77;70.14;101484.72;5098622;27;45376;-48
2022/11/25 09:55:20;;;;;;;;;9.33;7.00;;;;;12.81;69.29;101492.31;5098075;27;45288;-45
2022/11/25 09:57:58;;;;;;;;;11.33;8.00;;;;;12.85;69.11;101493.72;5096729;27;45831;-44
2022/11/25 10:00:24;;;;;;;;;16.33;8.00;;;;;12.91;68.79;101505.66;5098482;27;45664;-45
2022/11/25 10:03:14;;;;;;;;;10.33;3.67;;;;;12.97;69.15;101503.22;5098431;27;45369;-48
2022/11/25 10:06:08;;;;;;;;;7.33;5.33;;;;;13.06;69.12;101511.38;5098220;27;45891;-45
2022/11/25 10:08:47;;;;;;;;;10.33;7.00;;;;;13.02;68.31;101497.47;5098136;27;45431;-45
2022/11/25 10:11:31;;;;;;;;;8.00;4.67;;;;;13.12;68.09;101511.66;5098116;27;45280;-46
2022/11/25 10:14:09;;;;;;;;;7.00;7.00;;;;;13.16;67.96;101510.38;5098066;27;45409;-44
2022/11/25 10:16:48;;;;;;;;;6.33;6.00;;;;;13.25;67.48;101522.03;5097775;27;45384;-48
2022/11/25 10:19:35;;;;;;;;;6.00;3.67;;;;;13.23;67.31;101507.97;5097812;27;45302;-46
2022/11/25 10:22:16;;;;;;;;;12.00;6.67;;;;;13.39;67.04;101524.25;5096677;27;45370;-46
2022/11/25 10:24:41;;;;;;;;;9.00;6.00;;;;;13.46;66.49;101529.84;5098167;27;45299;-47
2022/11/25 10:27:16;;;;;;;;;4.00;3.00;;;;;13.46;66.55;101522.69;5097655;27;46865;-45
2022/11/25 10:29:55;;;;;;;;;6.67;3.67;;;;;13.47;66.55;101537.72;5097898;27;45379;-43
2022/11/25 10:32:27;;;;;;;;;10.33;4.33;;;;;13.46;66.42;101541.38;5097864;27;45479;-45
2022/11/25 10:34:59;;;;;;;;;8.67;3.67;;;;;13.52;66.33;101541.78;5097948;27;45505;-48
2022/11/25 10:37:34;;;;;;;;;4.00;4.00;;;;;13.74;65.79;101541.44;5098090;27;45592;-50
2022/11/25 10:39:59;;;;;;;;;7.67;5.33;;;;;14.09;64.95;101540.66;5098205;27;45440;-45
2022/11/25 10:42:27;;;;;;;;;4.00;4.00;;;;;14.22;63.79;101540.31;5098062;27;45332;-44
2022/11/25 10:44:53;;;;;;;;;4.33;4.33;;;;;14.18;63.90;101542.44;5098374;27;45392;-47
2022/11/25 10:47:32;;;;;;;;;7.67;4.33;;;;;14.19;64.29;101536.09;5097859;27;46184;-47
2022/11/25 10:50:06;;;;;;;;;3.00;2.00;;;;;14.48;63.91;101549.31;5096774;27;45440;-48
2022/11/25 10:52:58;;;;;;;;;7.00;3.33;;;;;14.82;63.04;101543.25;5098115;27;45393;-44
2022/11/25 10:55:27;;;;;;;;;5.00;3.33;;;;;15.25;61.39;101551.44;5013840;28;45357;-46
2022/11/25 10:57:54;;;;;;;;;4.67;4.33;;;;;15.61;60.43;101558.34;5011348;28;46073;-48
2022/11/25 11:00:36;;;;;;;;;4.33;3.33;;;;;15.85;59.36;101557.66;5011650;28;45493;-48
2022/11/25 11:03:22;;;;;;;;;8.00;3.67;;;;;15.64;60.27;101562.56;5010779;28;45611;-48
2022/11/25 11:05:50;;;;;;;;;12.00;3.00;;;;;15.45;59.98;101564.47;5012422;28;45407;-49
2022/11/25 11:08:36;;;;;;;;;3.33;3.33;;;;;15.55;59.94;101563.50;5010501;28;46195;-47
2022/11/25 11:11:20;;;;;;;;;11.00;2.67;;;;;15.51;59.87;101560.31;5011723;28;45468;-47
2022/11/25 11:13:47;;;;;;;;;8.00;4.33;;;;;15.32;60.32;101563.22;5011840;28;45380;-44
2022/11/25 11:16:28;;;;;;;;;8.00;4.00;;;;;15.18;60.98;101568.16;5011358;28;45460;-47
2022/11/25 11:18:55;;;;;;;;;7.67;3.00;;;;;15.13;60.93;101566.94;5010827;28;46418;-45
2022/11/25 11:21:34;;;;;;;;;6.33;4.00;;;;;15.12;61.22;101567.91;5011378;28;45672;-45
2022/11/25 11:24:01;;;;;;;;;7.33;4.67;;;;;15.15;60.92;101573.81;5010974;28;46442;-46
2022/11/25 11:26:32;;;;;;;;;7.33;5.00;;;;;15.13;61.45;101562.41;5011544;28;45460;-47
2022/11/25 11:29:11;;;;;;;;;4.67;3.00;;;;;15.26;60.72;101579.94;5011495;28;47087;-45
2022/11/25 11:31:43;;;;;;;;;4.33;3.00;;;;;15.33;60.51;101586.31;5025169;27;45408;-44
2022/11/25 11:34:26;;;;;;;;;7.33;6.33;;;;;15.50;60.42;101593.47;5094400;27;45436;-47